Time;durP1;ratioP1;P1;durP2;ratioP2;P2;SDS_P1;SDS_P2;PMS_P1;PMS_P2;Temp;Humidity;BMP_temperature;BMP_pressure;BME280_temperature;BME280_humidity;BME280_pressure;Samples;Min_cycle;Max_cycle;Signal;HPM_P1;HPM_P2
2022/07/17 00:00:19;;;;;;;;;;;;;;;16.61;100.00;100018.88;5075023;28;19932;-79
2022/07/17 00:02:48;;;;;;;;;;;;;;;16.67;100.00;100017.91;5075044;28;19928;-79
2022/07/17 00:05:15;;;;;;;;;;;;;;;16.70;100.00;100033.16;5072742;28;20015;-79
2022/07/17 00:07:42;;;;;;;;;;;;;;;16.84;100.00;100024.34;5073563;28;19929;-79
2022/07/17 00:10:10;;;;;;;;;;;;;;;16.78;100.00;100028.94;5074684;28;20284;-79
2022/07/17 00:12:37;;;;;;;;;;;;;;;16.72;100.00;100031.47;5074796;28;19938;-79
2022/07/17 00:15:04;;;;;;;;;;;;;;;16.67;100.00;100025.56;5073658;28;20001;-79
2022/07/17 00:17:31;;;;;;;;;;;;;;;16.37;100.00;100028.72;5072345;28;20019;-79
2022/07/17 00:19:59;;;;;;;;;;;;;;;16.27;100.00;100028.53;5072097;28;19970;-79
2022/07/17 00:22:27;;;;;;;;;;;;;;;15.99;100.00;100036.84;5072602;28;19928;-79
2022/07/17 00:24:54;;;;;;;;;;;;;;;16.36;100.00;100039.19;5072262;28;19934;-79
2022/07/17 00:27:21;;;;;;;;;;;;;;;16.47;100.00;100038.97;5072568;28;19952;-79
2022/07/17 00:29:48;;;;;;;;;;;;;;;16.36;100.00;100035.59;5088141;28;20011;-79
2022/07/17 00:32:16;;;;;;;;;;;;;;;16.56;100.00;100036.31;5054938;28;19931;-79
2022/07/17 00:34:44;;;;;;;;;;;;;;;16.54;100.00;100024.72;5039820;28;19924;-79
2022/07/17 00:37:11;;;;;;;;;;;;;;;15.85;100.00;100035.16;5056412;28;20343;-79
2022/07/17 00:39:38;;;;;;;;;;;;;;;15.79;100.00;100036.91;5074023;28;19928;-79
2022/07/17 00:42:09;;;;;;;;;;;;;;;15.82;100.00;100030.38;5072937;28;20379;-79
2022/07/17 00:44:40;;;;;;;;;;;;;;;15.84;100.00;100033.53;5089587;28;19930;-79
2022/07/17 00:47:15;;;;;;;;;;;;;;;15.53;100.00;100029.41;5072968;28;19931;-79
2022/07/17 00:49:42;;;;;;;;;;;;;;;15.13;100.00;100038.22;5073104;28;19925;-79
2022/07/17 00:52:10;;;;;;;;;;;;;;;14.74;100.00;100040.97;5089566;28;19924;-79
2022/07/17 00:54:38;;;;;;;;;;;;;;;15.23;100.00;100038.03;5072508;28;19979;-79
2022/07/17 00:57:06;;;;;;;;;;;;;;;15.63;100.00;100022.72;5073864;28;20422;-79
2022/07/17 00:59:34;;;;;;;;;;;;;;;15.82;100.00;100019.13;5106361;28;19925;-79
2022/07/17 01:02:05;;;;;;;;;;;;;;;15.38;100.00;100019.66;5072557;28;19924;-79
2022/07/17 01:04:36;;;;;;;;;;;;;;;15.11;100.00;100024.59;5089612;28;19928;-79
2022/07/17 01:07:05;;;;;;;;;;;;;;;15.22;100.00;100025.16;5072397;28;19947;-79
2022/07/17 01:09:32;;;;;;;;;;;;;;;14.62;100.00;100028.28;5072879;28;20011;-79
2022/07/17 01:12:00;;;;;;;;;;;;;;;14.61;100.00;100034.34;5071502;28;19925;-79
2022/07/17 01:14:28;;;;;;;;;;;;;;;15.12;100.00;100026.16;5072956;28;19925;-79
2022/07/17 01:16:55;;;;;;;;;;;;;;;15.44;100.00;100020.72;5088610;28;19924;-79
2022/07/17 01:19:22;;;;;;;;;;;;;;;15.43;100.00;100019.16;5072627;28;20015;-79
2022/07/17 01:21:50;;;;;;;;;;;;;;;15.40;100.00;100013.59;5072090;28;20015;-78
2022/07/17 01:24:19;;;;;;;;;;;;;;;15.41;100.00;100024.41;5073172;28;19930;-79
2022/07/17 01:26:48;;;;;;;;;;;;;;;15.20;100.00;100016.38;5053467;28;20001;-79
2022/07/17 01:29:16;;;;;;;;;;;;;;;15.50;100.00;100007.72;5072241;28;19924;-79
2022/07/17 01:31:44;;;;;;;;;;;;;;;15.54;100.00;100011.25;5072097;28;19931;-79
2022/07/17 01:34:12;;;;;;;;;;;;;;;15.55;100.00;100012.06;5073139;28;19928;-79
2022/07/17 01:36:40;;;;;;;;;;;;;;;15.46;100.00;100012.66;5072140;28;19933;-79
2022/07/17 01:39:07;;;;;;;;;;;;;;;15.42;100.00;100011.91;5072996;28;19924;-79
2022/07/17 01:41:34;;;;;;;;;;;;;;;15.60;100.00;100008.75;5073162;28;19924;-79
2022/07/17 01:44:03;;;;;;;;;;;;;;;15.73;100.00;100013.28;5071916;28;19968;-79
2022/07/17 01:46:30;;;;;;;;;;;;;;;15.75;100.00;100013.63;5071671;28;19924;-79
2022/07/17 01:49:00;;;;;;;;;;;;;;;15.44;100.00;100005.84;5071981;28;19925;-79
2022/07/17 01:51:28;;;;;;;;;;;;;;;14.37;100.00;100022.28;5073111;28;19977;-79
2022/07/17 01:53:57;;;;;;;;;;;;;;;14.38;100.00;100015.44;5073112;28;20011;-79
2022/07/17 01:56:24;;;;;;;;;;;;;;;14.94;100.00;100008.81;5088516;28;19978;-79
2022/07/17 01:58:51;;;;;;;;;;;;;;;15.33;100.00;100005.22;5073077;28;20007;-79
2022/07/17 02:01:18;;;;;;;;;;;;;;;15.42;100.00;100003.47;5072904;28;20347;-79
2022/07/17 02:03:45;;;;;;;;;;;;;;;15.52;100.00;99999.66;5071890;28;19933;-79
2022/07/17 02:06:12;;;;;;;;;;;;;;;15.58;100.00;99997.91;5072770;28;20042;-79
2022/07/17 02:08:39;;;;;;;;;;;;;;;15.73;100.00;99989.94;5072914;28;19924;-79
2022/07/17 02:11:06;;;;;;;;;;;;;;;15.86;100.00;99979.56;5073139;28;20366;-79
2022/07/17 02:13:33;;;;;;;;;;;;;;;15.89;100.00;99976.69;5072807;28;19925;-79
2022/07/17 02:16:00;;;;;;;;;;;;;;;15.96;100.00;99973.69;5104902;28;20337;-79
2022/07/17 02:18:27;;;;;;;;;;;;;;;15.98;100.00;99976.88;5088326;28;19924;-79
2022/07/17 02:20:55;;;;;;;;;;;;;;;15.94;100.00;99975.38;5072604;28;19925;-79
2022/07/17 02:23:22;;;;;;;;;;;;;;;16.00;100.00;99976.44;5071585;28;19932;-79
2022/07/17 02:25:49;;;;;;;;;;;;;;;15.83;100.00;99969.16;5105028;28;20086;-79
2022/07/17 02:28:18;;;;;;;;;;;;;;;15.84;100.00;99960.28;5072785;28;19978;-79
2022/07/17 02:30:45;;;;;;;;;;;;;;;15.96;100.00;99958.81;5071345;28;19925;-79
2022/07/17 02:33:12;;;;;;;;;;;;;;;15.22;100.00;99963.22;5072733;28;20367;-79
2022/07/17 02:35:39;;;;;;;;;;;;;;;14.68;100.00;99975.94;5088049;28;19974;-79
2022/07/17 02:38:07;;;;;;;;;;;;;;;14.60;100.00;99966.03;5072199;28;19929;-79
2022/07/17 02:40:34;;;;;;;;;;;;;;;14.87;100.00;99975.19;5075300;28;19924;-79
2022/07/17 02:43:01;;;;;;;;;;;;;;;15.42;100.00;99972.50;5076464;28;19924;-79
2022/07/17 02:45:28;;;;;;;;;;;;;;;15.73;100.00;99982.28;5075143;28;19946;-79
2022/07/17 02:47:55;;;;;;;;;;;;;;;15.86;100.00;99983.19;5075199;28;20458;-79
2022/07/17 02:50:22;;;;;;;;;;;;;;;16.10;100.00;99992.28;5076152;28;19932;-79
2022/07/17 02:52:49;;;;;;;;;;;;;;;15.80;100.00;99976.47;5075954;28;19924;-79
2022/07/17 02:55:17;;;;;;;;;;;;;;;15.76;100.00;99967.31;5073232;28;19924;-79
2022/07/17 02:57:47;;;;;;;;;;;;;;;15.18;100.00;99945.63;5073917;28;19928;-79
2022/07/17 03:00:15;;;;;;;;;;;;;;;15.59;100.00;99934.69;5106595;28;20388;-79
2022/07/17 03:02:43;;;;;;;;;;;;;;;16.14;100.00;99954.34;5073521;28;19928;-79
2022/07/17 03:05:10;;;;;;;;;;;;;;;15.38;100.00;99949.25;5056961;28;20011;-79
2022/07/17 03:07:37;;;;;;;;;;;;;;;14.72;100.00;99957.00;5074688;28;19989;-79
2022/07/17 03:10:05;;;;;;;;;;;;;;;15.34;100.00;99953.34;5075419;28;19987;-79
2022/07/17 03:12:32;;;;;;;;;;;;;;;15.95;100.00;99943.91;5076020;28;19931;-79
2022/07/17 03:14:59;;;;;;;;;;;;;;;16.40;100.00;99929.13;5074453;28;20019;-79
2022/07/17 03:17:26;;;;;;;;;;;;;;;16.64;100.00;99944.63;5075906;28;20008;-79
2022/07/17 03:19:53;;;;;;;;;;;;;;;16.16;100.00;99954.69;5056629;28;19928;-79
2022/07/17 03:22:20;;;;;;;;;;;;;;;16.25;100.00;99956.91;5075804;28;20291;-79
2022/07/17 03:24:48;;;;;;;;;;;;;;;16.37;100.00;99975.13;5075669;28;19986;-79
2022/07/17 03:27:15;;;;;;;;;;;;;;;16.60;100.00;99969.34;5075581;28;20085;-79
2022/07/17 03:29:42;;;;;;;;;;;;;;;16.46;100.00;99966.88;5057831;28;20371;-79
2022/07/17 03:32:10;;;;;;;;;;;;;;;16.55;100.00;99973.50;5075640;28;20435;-79
2022/07/17 03:34:38;;;;;;;;;;;;;;;16.76;100.00;99966.47;5091084;28;20019;-79
2022/07/17 03:37:05;;;;;;;;;;;;;;;16.83;100.00;99964.25;5075448;28;20386;-79
2022/07/17 03:39:32;;;;;;;;;;;;;;;16.86;100.00;99957.72;5075625;28;20062;-79
2022/07/17 03:41:59;;;;;;;;;;;;;;;16.90;100.00;99952.00;5075330;28;19930;-79
2022/07/17 03:44:26;;;;;;;;;;;;;;;17.02;100.00;99948.44;5075313;28;19925;-79
2022/07/17 03:46:53;;;;;;;;;;;;;;;17.08;100.00;99935.34;5074079;28;19931;-79
2022/07/17 03:49:21;;;;;;;;;;;;;;;16.22;100.00;99936.00;5074750;28;20005;-79
2022/07/17 03:51:54;;;;;;;;;;;;;;;15.59;100.00;99937.53;5074158;28;20077;-79
2022/07/17 03:54:22;;;;;;;;;;;;;;;15.72;100.00;99941.22;5075096;28;19924;-79
2022/07/17 03:56:49;;;;;;;;;;;;;;;15.74;100.00;99947.22;5090615;28;19924;-79
2022/07/17 03:59:16;;;;;;;;;;;;;;;16.37;100.00;99958.22;5073827;28;19931;-79
2022/07/17 04:01:43;;;;;;;;;;;;;;;16.20;100.00;99957.41;5073772;28;20406;-79
2022/07/17 04:04:10;;;;;;;;;;;;;;;16.72;100.00;99957.31;5075066;28;20007;-79
2022/07/17 04:06:38;;;;;;;;;;;;;;;16.91;100.00;99953.56;5074989;28;20025;-79
2022/07/17 04:09:10;;;;;;;;;;;;;;;16.92;100.00;99955.19;5074752;28;20038;-79
2022/07/17 04:11:39;;;;;;;;;;;;;;;16.97;100.00;99951.78;5074805;28;20343;-79
2022/07/17 04:14:06;;;;;;;;;;;;;;;16.40;100.00;99957.31;5074830;28;19929;-79
2022/07/17 04:16:33;;;;;;;;;;;;;;;16.42;100.00;99971.78;5056787;28;19928;-79
2022/07/17 04:19:00;;;;;;;;;;;;;;;16.83;100.00;99977.56;5073536;28;19924;-79
2022/07/17 04:21:27;;;;;;;;;;;;;;;16.70;100.00;99956.97;5074623;28;19932;-79
2022/07/17 04:23:54;;;;;;;;;;;;;;;16.19;100.00;99948.16;5073338;28;20375;-79
2022/07/17 04:26:21;;;;;;;;;;;;;;;16.00;100.00;99940.59;5074736;28;19931;-79
2022/07/17 04:28:48;;;;;;;;;;;;;;;16.22;100.00;99936.00;5074720;28;19978;-79
2022/07/17 04:31:15;;;;;;;;;;;;;;;16.81;100.00;99923.63;5074201;28;19925;-79
2022/07/17 04:33:42;;;;;;;;;;;;;;;17.08;100.00;99936.16;5073493;28;19995;-79
2022/07/17 04:36:09;;;;;;;;;;;;;;;17.21;100.00;99936.97;5074456;28;19978;-79
2022/07/17 04:38:36;;;;;;;;;;;;;;;16.90;100.00;99935.06;5056567;28;19924;-79
2022/07/17 04:41:03;;;;;;;;;;;;;;;17.22;100.00;99946.25;5074280;28;19929;-79
2022/07/17 04:43:31;;;;;;;;;;;;;;;17.08;100.00;99946.66;5074260;28;19932;-79
2022/07/17 04:45:58;;;;;;;;;;;;;;;17.17;100.00;99950.41;5072699;28;19932;-79
2022/07/17 04:48:25;;;;;;;;;;;;;;;15.68;100.00;99951.81;5074241;28;20472;-79
2022/07/17 04:50:52;;;;;;;;;;;;;;;15.10;100.00;99949.78;5074006;28;19951;-79
2022/07/17 04:53:19;;;;;;;;;;;;;;;15.59;100.00;99931.06;5074700;28;19932;-79
2022/07/17 04:55:49;;;;;;;;;;;;;;;16.65;100.00;99937.75;5073574;28;19924;-79
2022/07/17 04:58:16;;;;;;;;;;;;;;;17.13;100.00;99921.47;5073609;28;19925;-79
2022/07/17 05:00:43;;;;;;;;;;;;;;;17.28;100.00;99938.81;5073966;28;19929;-79
2022/07/17 05:03:10;;;;;;;;;;;;;;;16.30;100.00;99952.75;5075002;28;19928;-79
2022/07/17 05:05:40;;;;;;;;;;;;;;;16.64;100.00;99958.75;5056989;28;19931;-79
2022/07/17 05:08:07;;;;;;;;;;;;;;;15.93;100.00;99963.28;5074628;28;20005;-79
2022/07/17 05:10:34;;;;;;;;;;;;;;;16.78;100.00;99972.50;5074621;28;19924;-79
2022/07/17 05:13:01;;;;;;;;;;;;;;;17.11;100.00;99965.50;5074549;28;19924;-79
2022/07/17 05:15:28;;;;;;;;;;;;;;;17.22;100.00;99974.50;5073195;28;20462;-79
2022/07/17 05:17:55;;;;;;;;;;;;;;;17.46;100.00;99973.00;5074668;28;19932;-79
2022/07/17 05:20:22;;;;;;;;;;;;;;;17.69;100.00;99975.53;5107247;28;19924;-79
2022/07/17 05:22:49;;;;;;;;;;;;;;;16.99;100.00;99954.97;5073208;28;19936;-79
2022/07/17 05:25:16;;;;;;;;;;;;;;;16.43;100.00;99933.88;5090128;28;19959;-79
2022/07/17 05:27:43;;;;;;;;;;;;;;;17.04;100.00;99954.44;5073151;28;19987;-79
2022/07/17 05:30:11;;;;;;;;;;;;;;;17.42;100.00;99972.28;5074138;28;19924;-79
2022/07/17 05:32:38;;;;;;;;;;;;;;;17.79;100.00;99971.59;5074249;28;19975;-79
2022/07/17 05:35:05;;;;;;;;;;;;;;;17.44;100.00;99964.97;5073168;28;19932;-79
2022/07/17 05:37:33;;;;;;;;;;;;;;;16.37;100.00;99963.84;5072960;28;20292;-79
2022/07/17 05:40:00;;;;;;;;;;;;;;;17.09;100.00;99973.63;5074194;28;19931;-79
2022/07/17 05:42:27;;;;;;;;;;;;;;;17.43;100.00;99969.03;5074401;28;19924;-79
2022/07/17 05:44:58;;;;;;;;;;;;;;;17.90;100.00;99986.19;5073850;28;19924;-79
2022/07/17 05:47:25;;;;;;;;;;;;;;;17.86;100.00;99977.81;5072757;28;19947;-79
2022/07/17 05:49:52;;;;;;;;;;;;;;;17.61;100.00;99979.81;5074313;28;20375;-79
2022/07/17 05:52:19;;;;;;;;;;;;;;;16.91;100.00;99990.25;5089309;28;19924;-79
2022/07/17 05:54:46;;;;;;;;;;;;;;;17.66;100.00;99985.69;5072584;28;20387;-79
2022/07/17 05:57:13;;;;;;;;;;;;;;;18.20;100.00;99984.84;5074191;28;20144;-79
2022/07/17 05:59:40;;;;;;;;;;;;;;;18.63;100.00;99985.06;5073708;28;19925;-79
2022/07/17 06:02:08;;;;;;;;;;;;;;;18.82;100.00;99978.31;5106252;28;19931;-80
2022/07/17 06:04:35;;;;;;;;;;;;;;;18.79;100.00;99971.53;5056175;28;20331;-79
2022/07/17 06:07:02;;;;;;;;;;;;;;;19.07;100.00;99981.03;5089420;28;20380;-79
2022/07/17 06:09:29;;;;;;;;;;;;;;;19.44;100.00;99966.75;5072521;28;19932;-79
2022/07/17 06:11:56;;;;;;;;;;;;;;;18.89;100.00;99967.53;5074493;28;19931;-79
2022/07/17 06:14:24;;;;;;;;;;;;;;;19.49;100.00;99962.53;5077785;28;20023;-79
2022/07/17 06:16:51;;;;;;;;;;;;;;;19.78;100.00;99953.72;5077816;28;19931;-79
2022/07/17 06:19:18;;;;;;;;;;;;;;;19.82;100.00;99943.00;5077770;28;20015;-79
2022/07/17 06:21:45;;;;;;;;;;;;;;;19.97;100.00;99946.88;5076606;28;19962;-79
2022/07/17 06:24:12;;;;;;;;;;;;;;;20.17;100.00;99952.97;5076459;28;19924;-79
2022/07/17 06:26:39;;;;;;;;;;;;;;;19.10;100.00;99961.09;5077677;28;19924;-79
2022/07/17 06:29:07;;;;;;;;;;;;;;;19.16;100.00;99964.91;5070195;28;19978;-79
2022/07/17 06:31:34;;;;;;;;;;;;;;;19.47;100.00;99962.19;5056366;28;19929;-79
2022/07/17 06:34:01;;;;;;;;;;;;;;;20.01;100.00;99950.38;5055960;28;19925;-79
2022/07/17 06:36:28;;;;;;;;;;;;;;;20.37;100.00;99945.63;5057333;28;19971;-79
2022/07/17 06:38:55;;;;;;;;;;;;;;;20.58;100.00;99947.59;5057486;28;19931;-80
2022/07/17 06:41:22;;;;;;;;;;;;;;;20.61;100.00;99952.31;5056119;28;20311;-80
2022/07/17 06:43:49;;;;;;;;;;;;;;;20.35;100.00;99955.88;5056125;28;20367;-79
2022/07/17 06:46:16;;;;;;;;;;;;;;;20.69;100.00;99952.81;5072341;28;19925;-79
2022/07/17 06:48:43;;;;;;;;;;;;;;;20.98;100.00;99956.00;5057310;28;20043;-80
2022/07/17 06:51:11;;;;;;;;;;;;;;;21.31;100.00;99951.28;5056088;28;19947;-80
2022/07/17 06:53:43;;;;;;;;;;;;;;;21.19;100.00;99952.19;5071610;28;20364;-80
2022/07/17 06:56:10;;;;;;;;;;;;;;;21.20;100.00;99950.97;5055644;28;19925;-80
2022/07/17 06:58:37;;;;;;;;;;;;;;;21.61;100.00;99943.78;5057089;28;19931;-80
2022/07/17 07:01:04;;;;;;;;;;;;;;;22.01;100.00;99939.41;5057078;28;20008;-80
2022/07/17 07:03:31;;;;;;;;;;;;;;;22.20;100.00;99938.06;5087812;28;19960;-79
2022/07/17 07:05:59;;;;;;;;;;;;;;;22.29;100.00;99938.03;5055134;28;19925;-79
2022/07/17 07:08:26;;;;;;;;;;;;;;;22.81;100.00;99928.84;5087630;28;19925;-78
2022/07/17 07:10:53;;;;;;;;;;;;;;;22.88;100.00;99931.34;5072092;28;19933;-79
2022/07/17 07:13:20;;;;;;;;;;;;;;;23.09;100.00;99918.81;5056523;28;19925;-79
2022/07/17 07:15:47;;;;;;;;;;;;;;;23.93;100.00;99912.56;5055453;28;20406;-79
2022/07/17 07:18:14;;;;;;;;;;;;;;;24.61;100.00;99919.59;5055353;28;19929;-79
2022/07/17 07:20:41;;;;;;;;;;;;;;;25.17;100.00;99906.78;5056426;28;19925;-79
2022/07/17 07:23:08;;;;;;;;;;;;;;;26.06;100.00;99910.03;5057284;28;19991;-79
2022/07/17 07:25:35;;;;;;;;;;;;;;;26.33;100.00;99917.25;5065265;28;19932;-79
2022/07/17 07:28:03;;;;;;;;;;;;;;;25.35;100.00;99915.09;5070398;28;19935;-79
2022/07/17 07:30:31;;;;;;;;;;;;;;;25.26;100.00;99916.00;5066947;28;20364;-79
2022/07/17 07:32:58;;;;;;;;;;;;;;;26.08;100.00;99927.47;5074933;28;19928;-79
2022/07/17 07:35:25;;;;;;;;;;;;;;;26.67;100.00;99924.00;5072803;28;19928;-79
2022/07/17 07:37:52;;;;;;;;;;;;;;;26.87;100.00;99916.00;5056499;28;19947;-79
2022/07/17 07:40:19;;;;;;;;;;;;;;;27.03;100.00;99906.69;5055151;28;19925;-79
2022/07/17 07:42:47;;;;;;;;;;;;;;;26.89;100.00;99895.41;5056305;28;19925;-79
2022/07/17 07:45:14;;;;;;;;;;;;;;;27.77;100.00;99889.91;5056166;28;19964;-79
2022/07/17 07:47:45;;;;;;;;;;;;;;;27.81;100.00;99890.41;5088248;28;20031;-79
2022/07/17 07:50:12;;;;;;;;;;;;;;;27.66;100.00;99887.00;5056044;28;19932;-79
2022/07/17 07:52:40;;;;;;;;;;;;;;;27.31;100.00;99881.00;5055952;28;20372;-79
2022/07/17 07:55:10;;;;;;;;;;;;;;;27.34;100.00;99883.59;5071356;28;19924;-79
2022/07/17 07:57:40;;;;;;;;;;;;;;;27.64;100.00;99875.28;5054572;28;20375;-79
2022/07/17 08:00:08;;;;;;;;;;;;;;;27.50;100.00;99879.19;5054552;28;20790;-79
2022/07/17 08:02:39;;;;;;;;;;;;;;;26.88;100.00;99876.66;5054860;28;20289;-79
2022/07/17 08:05:06;;;;;;;;;;;;;;;27.80;100.00;99871.63;5055355;28;19925;-80
2022/07/17 08:07:34;;;;;;;;;;;;;;;28.54;100.00;99861.09;5055840;28;19976;-79
2022/07/17 08:10:02;;;;;;;;;;;;;;;29.44;100.00;99857.25;5054616;28;19964;-80
2022/07/17 08:12:29;;;;;;;;;;;;;;;30.30;100.00;99858.34;5054362;28;19924;-79
2022/07/17 08:15:10;;;;;;;;;;;;;;;31.35;100.00;99854.97;5090587;28;19925;-79
2022/07/17 08:17:37;;;;;;;;;;;;;;;32.09;100.00;99849.03;5053139;28;20015;-80
2022/07/17 08:20:04;;;;;;;;;;;;;;;32.58;100.00;99844.38;5053597;28;19925;-79
2022/07/17 08:22:34;;;;;;;;;;;;;;;32.92;100.00;99845.28;5054032;28;19925;-80
2022/07/17 08:25:19;;;;;;;;;;;;;;;33.22;100.00;99847.75;5067697;28;20027;-80
2022/07/17 08:27:46;;;;;;;;;;;;;;;33.28;100.00;99841.88;5055337;28;20016;-80
2022/07/17 08:30:14;;;;;;;;;;;;;;;33.56;100.00;99842.00;5087646;28;19944;-80
2022/07/17 08:32:41;;;;;;;;;;;;;;;33.14;100.00;99843.22;5055502;28;19925;-80
2022/07/17 08:35:08;;;;;;;;;;;;;;;32.21;100.00;99861.13;5054203;28;20323;-80
2022/07/17 08:37:42;;;;;;;;;;;;;;;32.09;100.00;99851.13;5053707;28;20011;-80
2022/07/17 08:40:14;;;;;;;;;;;;;;;32.54;100.00;99843.16;5055213;28;19924;-80
2022/07/17 08:42:42;;;;;;;;;;;;;;;33.18;100.00;99843.66;5055168;28;19964;-80
2022/07/17 08:45:10;;;;;;;;;;;;;;;33.54;100.00;99835.97;5053922;28;19964;-80
2022/07/17 08:47:38;;;;;;;;;;;;;;;33.68;100.00;99834.56;5054982;28;19932;-80
2022/07/17 08:50:05;;;;;;;;;;;;;;;29.39;100.00;99841.59;5086689;28;19929;-79
2022/07/17 08:52:32;;;;;;;;;;;;;;;29.31;100.00;99840.59;5054884;28;20041;-78
2022/07/17 08:54:59;;;;;;;;;;;;;;;30.68;100.00;99843.50;5054825;28;20018;-79
2022/07/17 08:57:26;;;;;;;;;;;;;;;31.18;100.00;99851.50;5054761;28;20268;-79
2022/07/17 08:59:53;;;;;;;;;;;;;;;31.14;100.00;99836.63;5055025;28;19925;-80
2022/07/17 09:02:20;;;;;;;;;;;;;;;31.74;100.00;99837.00;5054472;28;20466;-79
2022/07/17 09:04:54;;;;;;;;;;;;;;;31.36;100.00;99827.63;5086770;28;19929;-79
2022/07/17 09:07:21;;;;;;;;;;;;;;;30.80;100.00;99823.97;5055022;28;19978;-79
2022/07/17 09:09:52;;;;;;;;;;;;;;;31.23;100.00;99830.44;5059255;28;20009;-79
2022/07/17 09:12:29;;;;;;;;;;;;;;;31.41;100.00;99847.00;5069790;28;20356;-80
2022/07/17 09:14:56;;;;;;;;;;;;;;;29.55;100.00;99828.38;5073382;28;19931;-80
2022/07/17 09:17:26;;;;;;;;;;;;;;;30.01;100.00;99841.84;5073412;28;19924;-80
2022/07/17 09:19:53;;;;;;;;;;;;;;;29.48;100.00;99847.00;5089852;28;19928;-80
2022/07/17 09:22:22;;;;;;;;;;;;;;;28.98;100.00;99835.03;5106888;28;19925;-80
2022/07/17 09:24:50;;;;;;;;;;;;;;;30.40;100.00;99842.28;5073071;28;20360;-80
2022/07/17 09:27:23;;;;;;;;;;;;;;;31.60;100.00;99839.06;5074405;28;19955;-80
2022/07/17 09:29:55;;;;;;;;;;;;;;;31.76;100.00;99826.47;5073755;28;20372;-80
2022/07/17 09:32:25;;;;;;;;;;;;;;;32.43;100.00;99815.25;5071439;28;19924;-80
2022/07/17 09:34:53;;;;;;;;;;;;;;;32.23;100.00;99823.78;5072962;28;20065;-80
2022/07/17 09:37:21;;;;;;;;;;;;;;;31.71;100.00;99818.66;5072563;28;20405;-80
2022/07/17 09:39:51;;;;;;;;;;;;;;;32.05;100.00;99819.63;5106092;28;19924;-80
2022/07/17 09:42:32;;;;;;;;;;;;;;;32.49;100.00;99813.03;5074174;28;19924;-80
2022/07/17 09:45:01;;;;;;;;;;;;;;;31.59;100.00;99811.53;5089623;28;20015;-80
2022/07/17 09:47:29;;;;;;;;;;;;;;;30.78;100.00;99818.75;5089445;28;20023;-80
2022/07/17 09:49:56;;;;;;;;;;;;;;;30.25;100.00;99822.50;5074330;28;20044;-80
2022/07/17 09:52:26;;;;;;;;;;;;;;;31.39;100.00;99815.00;5072479;28;19924;-80
2022/07/17 09:54:55;;;;;;;;;;;;;;;31.29;100.00;99819.63;5074175;28;20028;-80
2022/07/17 09:57:33;;;;;;;;;;;;;;;31.68;100.00;99811.09;5073045;28;20035;-80
2022/07/17 10:00:05;;;;;;;;;;;;;;;31.43;100.00;99810.47;5072581;28;19925;-80
2022/07/17 10:02:42;;;;;;;;;;;;;;;31.49;100.00;99812.50;5073874;28;20003;-80
2022/07/17 10:05:11;;;;;;;;;;;;;;;30.76;100.00;99820.63;5106070;28;20264;-80
2022/07/17 10:07:40;;;;;;;;;;;;;;;31.10;100.00;99815.94;5040098;28;20422;-79
2022/07/17 10:10:10;;;;;;;;;;;;;;;30.99;100.00;99816.13;5072582;28;19924;-80
2022/07/17 10:12:38;;;;;;;;;;;;;;;31.60;100.00;99801.50;5073722;28;19994;-79
2022/07/17 10:15:05;;;;;;;;;;;;;;;30.73;100.00;99810.16;5073721;28;19928;-80
2022/07/17 10:17:33;;;;;;;;;;;;;;;30.37;100.00;99808.78;5073580;28;19931;-80
2022/07/17 10:20:03;;;;;;;;;;;;;;;29.08;100.00;99807.50;5073254;28;19932;-80
2022/07/17 10:22:44;;;;;;;;;;;;;;;30.20;100.00;99819.69;5055708;28;19932;-79
2022/07/17 10:25:15;;;;;;;;;;;;;;;31.14;100.00;99801.97;5073103;28;20295;-80
2022/07/17 10:27:50;;;;;;;;;;;;;;;31.44;100.00;99799.69;5072391;28;20380;-80
2022/07/17 10:30:20;;;;;;;;;;;;;;;31.14;100.00;99819.31;5073137;28;19931;-80
2022/07/17 10:32:51;;;;;;;;;;;;;;;30.69;100.00;99809.66;5072806;28;19924;-79
2022/07/17 10:35:19;;;;;;;;;;;;;;;28.95;100.00;99810.19;5073588;28;20367;-79
2022/07/17 10:37:49;;;;;;;;;;;;;;;28.67;100.00;99814.53;5073568;28;19930;-79
2022/07/17 10:40:20;;;;;;;;;;;;;;;29.33;100.00;99806.31;5073198;28;19924;-79
2022/07/17 10:42:48;;;;;;;;;;;;;;;29.60;100.00;99807.38;5087207;28;20363;-79
2022/07/17 10:45:15;;;;;;;;;;;;;;;30.84;100.00;99807.16;5073289;28;20035;-79
2022/07/17 10:47:45;;;;;;;;;;;;;;;29.82;100.00;99815.88;5072161;28;19924;-79
2022/07/17 10:50:12;;;;;;;;;;;;;;;29.97;100.00;99821.22;5073098;28;19931;-79
2022/07/17 10:52:40;;;;;;;;;;;;;;;29.64;100.00;99820.19;5070672;28;20021;-79
2022/07/17 10:55:18;;;;;;;;;;;;;;;29.51;100.00;99822.91;5070940;28;19924;-78
2022/07/17 10:57:46;;;;;;;;;;;;;;;29.11;100.00;99829.47;5071158;28;19928;-79
2022/07/17 11:00:15;;;;;;;;;;;;;;;28.96;100.00;99823.25;5073923;28;20284;-79
2022/07/17 11:02:42;;;;;;;;;;;;;;;30.41;100.00;99824.44;5075538;28;20050;-79
2022/07/17 11:05:12;;;;;;;;;;;;;;;29.28;100.00;99841.66;5073526;28;20306;-79
2022/07/17 11:08:09;;;;;;;;;;;;;;;30.22;100.00;99828.59;5109103;28;19975;-79
2022/07/17 11:10:37;;;;;;;;;;;;;;;30.21;100.00;99832.78;5067306;28;19986;-78
2022/07/17 11:13:09;;;;;;;;;;;;;;;29.65;100.00;99830.41;5076610;28;19925;-79
2022/07/17 11:15:37;;;;;;;;;;;;;;;29.30;100.00;99818.88;5076655;28;20387;-79
2022/07/17 11:18:10;;;;;;;;;;;;;;;30.17;100.00;99826.50;5076053;28;20366;-79
2022/07/17 11:20:46;;;;;;;;;;;;;;;30.45;100.00;99827.00;5107790;28;19978;-79
2022/07/17 11:23:13;;;;;;;;;;;;;;;29.04;100.00;99826.34;5108517;28;19924;-78
2022/07/17 11:25:50;;;;;;;;;;;;;;;30.18;100.00;99819.41;5075150;28;19955;-79
2022/07/17 11:28:33;;;;;;;;;;;;;;;30.49;100.00;99815.97;5075264;28;20287;-79
2022/07/17 11:31:01;;;;;;;;;;;;;;;30.20;100.00;99813.94;5076322;28;20382;-79
2022/07/17 11:33:28;;;;;;;;;;;;;;;29.49;100.00;99814.03;5076167;28;20013;-79
2022/07/17 11:35:55;;;;;;;;;;;;;;;30.14;100.00;99810.31;5058619;28;19935;-79
2022/07/17 11:38:27;;;;;;;;;;;;;;;29.66;100.00;99811.81;5075078;28;19925;-79
2022/07/17 11:40:54;;;;;;;;;;;;;;;30.11;100.00;99805.63;5076432;28;20009;-79
2022/07/17 11:43:25;;;;;;;;;;;;;;;31.11;100.00;99788.66;5076255;28;19994;-79
2022/07/17 11:45:52;;;;;;;;;;;;;;;30.94;100.00;99785.22;5076300;28;20371;-79
2022/07/17 11:48:20;;;;;;;;;;;;;;;30.93;100.00;99780.78;5058322;28;20406;-79
2022/07/17 11:50:54;;;;;;;;;;;;;;;29.38;100.00;99778.78;5076414;28;19931;-79
2022/07/17 11:53:31;;;;;;;;;;;;;;;30.16;100.00;99773.84;5108460;28;19972;-79
2022/07/17 11:55:58;;;;;;;;;;;;;;;30.89;100.00;99771.66;5075928;28;20013;-81
2022/07/17 11:58:25;;;;;;;;;;;;;;;30.85;100.00;99771.19;5076153;28;20010;-82
2022/07/17 12:01:05;;;;;;;;;;;;;;;30.33;100.00;99774.47;5074253;28;20057;-81
2022/07/17 12:03:32;;;;;;;;;;;;;;;29.82;100.00;99766.13;5065582;28;20351;-81
2022/07/17 12:05:59;;;;;;;;;;;;;;;30.14;100.00;99764.19;5053272;28;20412;-81
2022/07/17 12:08:26;;;;;;;;;;;;;;;30.22;100.00;99760.19;5053318;28;20283;-81
2022/07/17 12:11:07;;;;;;;;;;;;;;;29.37;100.00;99759.97;5054651;28;19932;-80
2022/07/17 12:13:43;;;;;;;;;;;;;;;29.65;100.00;99754.75;5054260;28;19975;-81
2022/07/17 12:16:20;;;;;;;;;;;;;;;29.15;100.00;99749.41;5056469;28;19974;-81
2022/07/17 12:18:56;;;;;;;;;;;;;;;30.82;100.00;99746.31;5058641;28;19929;-81
2022/07/17 12:21:24;;;;;;;;;;;;;;;31.22;100.00;99756.69;5055695;28;19924;-81
2022/07/17 12:23:58;;;;;;;;;;;;;;;30.07;100.00;99747.50;5054621;28;19925;-80
2022/07/17 12:26:31;;;;;;;;;;;;;;;30.67;100.00;99760.41;5070338;28;19925;-80
2022/07/17 12:28:59;;;;;;;;;;;;;;;30.58;100.00;99749.25;5053755;28;19932;-81
2022/07/17 12:31:27;;;;;;;;;;;;;;;29.60;100.00;99744.81;5070349;28;19967;-81
2022/07/17 12:33:55;;;;;;;;;;;;;;;30.67;100.00;99731.56;5053958;28;19928;-81
2022/07/17 12:36:23;;;;;;;;;;;;;;;31.44;100.00;99730.41;5055122;28;20422;-81
2022/07/17 12:38:50;;;;;;;;;;;;;;;30.92;100.00;99725.19;5055030;28;19948;-81
2022/07/17 12:41:18;;;;;;;;;;;;;;;30.02;100.00;99731.06;5055014;28;19947;-81